Time;durP1;ratioP1;P1;durP2;ratioP2;P2;SDS_P1;SDS_P2;PMS_P1;PMS_P2;Temp;Humidity;BMP_temperature;BMP_pressure;BME280_temperature;BME280_humidity;BME280_pressure;Samples;Min_cycle;Max_cycle;Signal;HPM_P1;HPM_P2
2021/05/30 00:02:16;;;;;;;6.68;1.95;;;;;;;16.63;48.62;98805.34;4962593;28;20034;-64
2021/05/30 00:04:42;;;;;;;3.83;2.00;;;;;;;16.76;46.90;98825.75;4975103;28;20077;-65
2021/05/30 00:07:07;;;;;;;4.15;1.30;;;;;;;16.29;45.94;98783.00;4977072;28;20026;-64
2021/05/30 00:09:34;;;;;;;4.80;1.73;;;;;;;16.55;47.78;98817.72;4959384;28;20026;-63
2021/05/30 00:12:00;;;;;;;5.72;1.90;;;;;;;16.70;47.40;98819.41;4965455;28;20122;-62
2021/05/30 00:14:26;;;;;;;5.25;1.98;;;;;;;16.84;47.35;98833.56;4977145;28;20434;-64
2021/05/30 00:16:52;;;;;;;4.97;1.77;;;;;;;16.69;48.37;98823.00;4959142;28;20038;-63
2021/05/30 00:19:18;;;;;;;4.53;1.77;;;;;;;16.44;47.44;98800.59;4967334;28;20273;-62
2021/05/30 00:21:45;;;;;;;4.43;1.90;;;;;;;16.77;48.19;98843.09;4979398;28;20030;-64
2021/05/30 00:24:10;;;;;;;4.57;1.83;;;;;;;16.41;47.53;98806.19;4951286;28;20042;-63
2021/05/30 00:26:36;;;;;;;4.85;1.80;;;;;;;16.71;48.53;98847.25;4982724;28;20649;-62
2021/05/30 00:29:02;;;;;;;4.00;1.80;;;;;;;16.60;48.53;98812.75;4968314;28;20125;-64
2021/05/30 00:31:28;;;;;;;4.15;2.03;;;;;;;16.61;48.08;98836.22;4978683;28;20026;-63
2021/05/30 00:33:53;;;;;;;5.03;1.98;;;;;;;16.38;48.62;98807.38;4982913;28;20184;-64
2021/05/30 00:36:19;;;;;;;4.60;1.80;;;;;;;16.69;49.58;98849.25;4963677;28;20034;-64
2021/05/30 00:38:44;;;;;;;4.82;1.80;;;;;;;16.69;49.53;98844.00;4966637;28;20030;-64
2021/05/30 00:41:10;;;;;;;3.95;1.70;;;;;;;16.67;49.06;98847.81;4978849;28;20030;-62
2021/05/30 00:43:48;;;;;;;5.65;2.00;;;;;;;16.71;49.63;98855.13;4982168;28;20037;-64
2021/05/30 00:46:14;;;;;;;4.30;1.95;;;;;;;16.75;48.86;98857.41;4982763;28;20038;-64
2021/05/30 00:48:39;;;;;;;4.55;1.85;;;;;;;16.77;49.85;98850.97;5000316;28;20066;-62
2021/05/30 00:51:05;;;;;;;5.28;2.03;;;;;;;16.73;49.44;98857.59;4981331;28;20046;-64
2021/05/30 00:53:32;;;;;;;4.03;1.63;;;;;;;16.46;49.80;98837.97;4966428;28;20337;-61
2021/05/30 00:55:57;;;;;;;5.68;1.90;;;;;;;16.73;49.90;98876.78;4998776;28;20026;-63
2021/05/30 00:58:23;;;;;;;5.13;2.00;;;;;;;16.58;49.93;98868.06;4983774;28;20038;-62
2021/05/30 01:00:49;;;;;;;5.03;2.08;;;;;;;16.60;49.81;98863.44;4982645;28;20181;-64
2021/05/30 01:03:14;;;;;;;3.92;1.60;;;;;;;16.69;50.69;98878.13;4984688;28;20477;-63
2021/05/30 01:05:40;;;;;;;4.47;1.80;;;;;;;16.64;50.23;98888.34;4981141;28;20030;-64
2021/05/30 01:08:05;;;;;;;4.70;2.20;;;;;;;16.70;49.88;98882.41;4977278;28;20042;-65
2021/05/30 01:10:34;;;;;;;4.38;1.63;;;;;;;16.64;49.60;98890.16;4978292;28;20473;-60
2021/05/30 01:13:01;;;;;;;4.00;1.63;;;;;;;16.53;49.91;98880.91;4983532;28;20073;-63
2021/05/30 01:15:27;;;;;;;4.00;1.85;;;;;;;16.31;50.76;98856.31;4986303;28;20045;-63
2021/05/30 01:17:54;;;;;;;4.90;1.60;;;;;;;16.41;51.28;98892.78;4980094;28;20405;-64
2021/05/30 01:20:21;;;;;;;4.28;1.90;;;;;;;16.34;51.88;98863.84;4992910;28;20049;-65
2021/05/30 01:22:47;;;;;;;5.93;1.90;;;;;;;16.22;52.00;98823.25;4966499;28;20488;-64
2021/05/30 01:25:15;;;;;;;4.10;1.50;;;;;;;16.57;52.47;98879.53;4963108;28;20023;-62
2021/05/30 01:27:41;;;;;;;5.40;2.00;;;;;;;16.53;52.29;98883.53;5006286;28;20037;-64
2021/05/30 01:30:08;;;;;;;5.53;2.05;;;;;;;16.30;52.22;98852.88;4963936;28;20034;-63
2021/05/30 01:32:34;;;;;;;4.72;1.83;;;;;;;16.53;53.26;98889.56;4979724;28;20029;-61
2021/05/30 01:35:00;;;;;;;5.55;1.85;;;;;;;16.55;53.06;98894.66;4966422;28;20216;-62
2021/05/30 01:37:26;;;;;;;3.75;1.67;;;;;;;16.48;51.84;98904.22;4980688;28;20042;-64
2021/05/30 01:39:52;;;;;;;5.20;1.95;;;;;;;16.54;51.59;98903.53;4980704;28;20133;-63
2021/05/30 01:42:17;;;;;;;4.65;1.88;;;;;;;16.44;53.24;98902.94;4982546;28;20105;-62
2021/05/30 01:44:43;;;;;;;4.78;1.90;;;;;;;16.55;52.64;98905.16;4981439;28;20088;-62
2021/05/30 01:47:08;;;;;;;6.35;1.98;;;;;;;16.54;52.17;98903.53;4996953;28;20042;-63
2021/05/30 01:49:35;;;;;;;5.93;2.28;;;;;;;16.50;52.77;98900.44;4964536;28;20026;-63
2021/05/30 01:52:02;;;;;;;4.57;2.13;;;;;;;16.05;53.56;98862.72;5014495;28;20023;-63
2021/05/30 01:54:28;;;;;;;5.60;2.22;;;;;;;15.93;53.92;98867.56;4963121;28;20019;-64
2021/05/30 01:56:57;;;;;;;6.03;1.90;;;;;;;16.17;52.57;98906.91;4965133;28;20042;-64
2021/05/30 01:59:26;;;;;;;3.45;1.55;;;;;;;16.23;52.00;98904.41;4966668;28;20033;-63
2021/05/30 02:01:57;;;;;;;3.97;1.70;;;;;;;15.98;51.80;98864.38;4980678;28;20064;-65
2021/05/30 02:04:26;;;;;;;4.15;1.70;;;;;;;16.18;51.98;98898.84;4980817;28;20042;-63
2021/05/30 02:06:51;;;;;;;4.97;1.80;;;;;;;16.14;52.63;98894.97;4982869;28;20034;-62
2021/05/30 02:09:17;;;;;;;4.63;1.80;;;;;;;16.13;53.05;98903.81;4980492;28;20084;-64
2021/05/30 02:11:42;;;;;;;5.18;2.08;;;;;;;16.18;53.24;98898.84;4982798;28;20580;-63
2021/05/30 02:14:08;;;;;;;4.72;2.00;;;;;;;16.25;53.09;98905.06;4963482;28;20084;-64
2021/05/30 02:16:36;;;;;;;5.03;2.28;;;;;;;16.21;53.85;98892.44;4980241;28;20042;-64
2021/05/30 02:19:02;;;;;;;5.70;2.88;;;;;;;16.39;52.86;98894.78;4977770;28;20038;-63
2021/05/30 02:21:39;;;;;;;6.15;3.00;;;;;;;16.36;53.73;98900.41;4981445;28;20069;-64
2021/05/30 02:24:04;;;;;;;5.97;2.92;;;;;;;16.15;53.91;98857.22;4966471;28;20026;-65
2021/05/30 02:26:30;;;;;;;7.57;3.47;;;;;;;16.45;53.61;98894.91;4981492;28;20041;-65
2021/05/30 02:28:56;;;;;;;7.15;3.03;;;;;;;16.44;54.10;98885.38;4979344;28;20030;-63
2021/05/30 02:31:21;;;;;;;5.50;3.00;;;;;;;16.43;54.10;98885.59;4964901;28;20038;-62
2021/05/30 02:33:47;;;;;;;6.47;3.10;;;;;;;16.53;53.89;98894.81;4978371;28;20440;-64
2021/05/30 02:36:12;;;;;;;5.20;2.80;;;;;;;16.43;54.40;98903.97;4978177;28;20037;-62
2021/05/30 02:38:38;;;;;;;6.32;3.15;;;;;;;16.51;54.22;98898.63;4974520;28;20027;-64
2021/05/30 02:41:03;;;;;;;5.85;3.20;;;;;;;16.55;54.37;98902.53;4974063;28;20027;-64
2021/05/30 02:43:29;;;;;;;6.90;3.10;;;;;;;16.36;54.07;98859.22;4978880;28;20034;-62
2021/05/30 02:45:54;;;;;;;6.30;3.22;;;;;;;16.21;54.24;98853.94;4981887;28;20543;-63
2021/05/30 02:48:19;;;;;;;5.32;2.88;;;;;;;16.41;54.16;98883.13;4979495;28;20034;-63
2021/05/30 02:50:57;;;;;;;5.22;2.90;;;;;;;16.56;54.53;98890.25;4979429;28;20033;-63
2021/05/30 02:53:23;;;;;;;6.38;2.92;;;;;;;16.59;54.39;98885.47;4979614;28;20038;-64
2021/05/30 02:55:48;;;;;;;5.10;2.85;;;;;;;16.63;54.17;98894.59;4977808;28;20023;-62
2021/05/30 02:58:14;;;;;;;6.03;2.70;;;;;;;16.64;54.63;98898.84;4979436;28;20042;-63
2021/05/30 03:00:39;;;;;;;5.63;2.95;;;;;;;16.40;54.82;98851.81;4981574;28;20113;-64
2021/05/30 03:03:04;;;;;;;4.80;2.55;;;;;;;16.38;54.70;98861.69;4980793;28;20454;-63
2021/05/30 03:05:30;;;;;;;5.43;2.60;;;;;;;16.43;55.37;98898.72;4981193;28;20559;-64
2021/05/30 03:07:55;;;;;;;5.53;2.60;;;;;;;16.36;55.41;98890.72;4979350;28;20030;-65
2021/05/30 03:10:21;;;;;;;7.32;2.65;;;;;;;16.31;56.01;98908.78;4976848;28;20042;-65
2021/05/30 03:12:46;;;;;;;7.32;2.90;;;;;;;16.33;56.25;98907.59;4982006;28;20042;-64
2021/05/30 03:15:12;;;;;;;4.90;2.63;;;;;;;16.25;56.57;98906.88;4981325;28;20077;-63
2021/05/30 03:17:37;;;;;;;6.00;2.50;;;;;;;16.17;56.51;98917.38;4962255;28;20030;-63
2021/05/30 03:20:03;;;;;;;6.57;2.90;;;;;;;16.22;56.68;98915.88;4983309;28;20058;-64
2021/05/30 03:22:29;;;;;;;5.93;2.83;;;;;;;16.27;56.12;98904.88;5012389;28;20041;-65
2021/05/30 03:24:55;;;;;;;6.30;2.70;;;;;;;16.26;56.02;98908.47;4965226;28;20034;-64
2021/05/30 03:27:20;;;;;;;6.35;2.90;;;;;;;16.22;55.13;98907.19;4978720;28;20026;-64
2021/05/30 03:29:45;;;;;;;5.45;2.65;;;;;;;16.05;55.21;98875.81;4977449;28;20038;-64
2021/05/30 03:32:11;;;;;;;5.88;2.40;;;;;;;16.02;55.66;98875.34;4979199;28;20151;-64
2021/05/30 03:34:36;;;;;;;6.30;2.45;;;;;;;16.00;55.58;98875.53;5008300;28;20085;-64
2021/05/30 03:37:02;;;;;;;6.47;2.50;;;;;;;16.25;55.76;98912.13;4980414;28;20503;-64
2021/05/30 03:39:29;;;;;;;5.25;2.55;;;;;;;16.24;56.19;98916.53;4963886;28;20436;-64
2021/05/30 03:41:55;;;;;;;7.30;2.45;;;;;;;16.34;55.25;98911.88;4976768;28;20555;-66
2021/05/30 03:44:21;;;;;;;5.55;2.28;;;;;;;16.14;54.81;98869.53;4962897;28;20026;-64
2021/05/30 03:46:46;;;;;;;6.75;2.33;;;;;;;16.37;55.48;98926.44;4965243;28;20031;-63
2021/05/30 03:49:12;;;;;;;5.03;2.47;;;;;;;16.44;55.21;98924.75;4975188;28;20096;-64
2021/05/30 03:51:37;;;;;;;6.38;2.65;;;;;;;16.37;55.44;98930.88;4979891;28;20030;-62
2021/05/30 03:54:03;;;;;;;4.88;2.30;;;;;;;16.40;55.05;98931.34;4976053;28;20469;-63
2021/05/30 03:56:28;;;;;;;6.18;2.60;;;;;;;16.44;55.03;98921.31;4959829;28;20533;-64
2021/05/30 03:58:56;;;;;;;5.38;2.53;;;;;;;16.41;54.94;98940.03;4979149;28;20045;-65
2021/05/30 04:01:21;;;;;;;4.90;2.53;;;;;;;16.40;54.63;98933.97;4962881;28;20113;-64
2021/05/30 04:03:47;;;;;;;5.10;2.60;;;;;;;16.44;55.42;98944.94;4978298;28;20039;-64
2021/05/30 04:06:12;;;;;;;6.00;2.30;;;;;;;15.80;56.58;98903.16;4976583;28;20031;-63
2021/05/30 04:08:38;;;;;;;5.13;2.25;;;;;;;15.91;56.64;98942.13;4964239;28;20119;-60
2021/05/30 04:11:03;;;;;;;4.97;2.33;;;;;;;15.89;56.44;98941.47;4979666;28;20026;-64
2021/05/30 04:13:29;;;;;;;5.22;2.20;;;;;;;15.87;56.49;98931.16;4976225;28;20092;-66
2021/05/30 04:15:54;;;;;;;4.80;2.22;;;;;;;15.96;56.52;98929.31;4981529;28;20552;-65
2021/05/30 04:18:23;;;;;;;5.00;2.10;;;;;;;15.85;56.46;98893.00;4976976;28;20042;-64
2021/05/30 04:20:49;;;;;;;4.20;1.90;;;;;;;16.17;56.46;98943.63;4977416;28;20030;-64
2021/05/30 04:23:15;;;;;;;5.82;2.17;;;;;;;16.03;56.84;98901.41;4980355;28;20159;-65
2021/05/30 04:25:41;;;;;;;4.03;1.90;;;;;;;16.38;56.99;98937.78;4963072;28;20030;-63
2021/05/30 04:28:06;;;;;;;5.38;2.17;;;;;;;16.44;57.03;98942.31;4978239;28;20404;-65
2021/05/30 04:30:32;;;;;;;4.50;2.08;;;;;;;16.51;56.48;98938.00;4980397;28;20030;-64
2021/05/30 04:32:57;;;;;;;5.40;2.38;;;;;;;16.30;56.88;98892.22;4980526;28;20046;-62
2021/05/30 04:35:22;;;;;;;5.07;2.20;;;;;;;16.58;57.16;98925.81;4993233;28;20606;-63
2021/05/30 04:37:48;;;;;;;4.55;1.90;;;;;;;16.60;56.47;98936.16;4980832;28;20029;-63
2021/05/30 04:40:13;;;;;;;4.50;2.03;;;;;;;16.48;56.53;98926.06;4980147;28;20084;-63
2021/05/30 04:42:39;;;;;;;5.28;2.00;;;;;;;16.17;57.54;98894.59;4981710;28;20073;-65
2021/05/30 04:45:06;;;;;;;4.43;1.90;;;;;;;16.22;57.19;98892.28;4979313;28;20052;-65
2021/05/30 04:47:31;;;;;;;6.20;2.20;;;;;;;16.37;56.76;98933.50;4962441;28;20307;-61
2021/05/30 04:49:57;;;;;;;4.78;2.13;;;;;;;16.18;56.83;98900.69;4981036;28;22076;-63
2021/05/30 04:52:22;;;;;;;5.13;2.30;;;;;;;16.31;56.85;98927.16;4962303;28;20053;-64
2021/05/30 04:54:48;;;;;;;5.85;2.28;;;;;;;16.39;57.34;98924.47;4965276;28;20084;-62
2021/05/30 04:57:13;;;;;;;5.55;2.05;;;;;;;16.10;58.61;98863.00;4983029;28;20545;-64
2021/05/30 04:59:38;;;;;;;4.70;2.10;;;;;;;16.24;57.27;98911.28;4985077;28;20022;-64
2021/05/30 05:02:04;;;;;;;4.65;2.30;;;;;;;16.39;57.62;98937.59;4982464;28;20022;-64
2021/05/30 05:04:30;;;;;;;5.30;2.00;;;;;;;16.25;58.38;98941.78;4979037;28;20085;-64
2021/05/30 05:06:55;;;;;;;6.28;1.83;;;;;;;15.95;58.86;98928.50;4980140;28;20034;-65
2021/05/30 05:09:21;;;;;;;6.15;2.13;;;;;;;15.79;58.97;98919.88;4964390;28;20112;-64
2021/05/30 05:11:46;;;;;;;6.25;1.80;;;;;;;15.67;58.37;98922.03;4984939;28;20050;-64
2021/05/30 05:14:11;;;;;;;4.20;1.70;;;;;;;15.73;58.37;98932.66;4979400;28;20080;-64
2021/05/30 05:16:37;;;;;;;4.43;1.80;;;;;;;15.78;58.76;98931.38;4985103;28;20718;-64
2021/05/30 05:19:04;;;;;;;4.10;1.48;;;;;;;15.85;58.52;98937.56;4980611;28;20030;-65
2021/05/30 05:21:30;;;;;;;4.72;1.48;;;;;;;15.73;58.78;98923.97;4982353;28;20038;-65
2021/05/30 05:23:55;;;;;;;4.97;1.70;;;;;;;15.73;59.27;98931.84;4984190;28;20393;-61
2021/05/30 05:26:21;;;;;;;4.95;1.70;;;;;;;15.74;58.64;98930.88;4966693;28;20573;-62
2021/05/30 05:28:47;;;;;;;4.32;1.50;;;;;;;15.56;58.65;98934.50;4978287;28;20624;-64
2021/05/30 05:31:12;;;;;;;3.80;1.50;;;;;;;15.40;58.43;98908.34;4996202;28;20042;-62
2021/05/30 05:33:37;;;;;;;5.30;1.95;;;;;;;15.66;58.60;98930.88;4979962;28;20070;-63
2021/05/30 05:36:03;;;;;;;5.15;1.50;;;;;;;15.70;57.98;98934.81;4960527;28;20373;-64
2021/05/30 05:38:29;;;;;;;4.30;1.70;;;;;;;15.52;57.96;98893.09;4980635;28;20074;-64
2021/05/30 05:40:54;;;;;;;3.88;1.52;;;;;;;15.55;58.20;98916.31;4963665;28;20050;-65
2021/05/30 05:43:20;;;;;;;4.05;1.60;;;;;;;15.27;58.21;98860.91;4981571;28;20404;-63
2021/05/30 05:45:45;;;;;;;3.47;1.50;;;;;;;15.59;58.22;98922.88;4982641;28;20023;-64
2021/05/30 05:48:15;;;;;;;4.35;1.50;;;;;;;15.36;57.97;98904.44;4979670;28;20146;-64
2021/05/30 05:50:42;;;;;;;4.78;1.73;;;;;;;15.53;58.40;98936.66;4961828;28;20084;-65
2021/05/30 05:53:08;;;;;;;4.15;1.58;;;;;;;15.63;57.77;98937.28;5005371;28;20031;-63
2021/05/30 05:55:34;;;;;;;4.47;1.70;;;;;;;15.61;58.77;98938.44;4974337;28;20116;-64
2021/05/30 05:58:00;;;;;;;4.25;1.58;;;;;;;15.64;57.70;98941.53;4965762;28;20034;-64
2021/05/30 06:00:25;;;;;;;4.10;1.80;;;;;;;15.68;58.27;98929.72;4974508;28;20044;-64
2021/05/30 06:02:51;;;;;;;3.95;1.70;;;;;;;15.60;57.46;98898.28;4981396;28;20494;-64
2021/05/30 06:05:19;;;;;;;4.78;1.77;;;;;;;15.90;57.55;98932.63;4961514;28;20034;-63
2021/05/30 06:07:49;;;;;;;4.38;1.55;;;;;;;15.96;56.84;98926.69;4977803;28;20030;-63
2021/05/30 06:10:15;;;;;;;;;;;;;;;16.01;57.44;98934.88;4978879;28;20117;-65
2021/05/30 06:12:40;;;;;;;4.13;1.40;;;;;;;15.98;56.58;98940.44;4979787;28;19961;-64
2021/05/30 06:15:07;;;;;;;4.25;1.40;;;;;;;15.90;56.76;98941.31;4979263;28;20030;-63
2021/05/30 06:17:32;;;;;;;3.47;1.50;;;;;;;15.83;56.56;98931.69;4977299;28;20041;-62
2021/05/30 06:19:58;;;;;;;3.63;1.50;;;;;;;15.76;56.90;98939.41;4979218;28;20031;-63
2021/05/30 06:22:23;;;;;;;4.35;1.55;;;;;;;15.67;56.89;98908.94;4978478;28;20026;-64
2021/05/30 06:24:49;;;;;;;4.60;1.50;;;;;;;15.90;56.00;98938.69;4981918;28;20034;-62
2021/05/30 06:27:14;;;;;;;3.92;1.40;;;;;;;15.86;56.41;98940.03;4976997;28;20121;-65
2021/05/30 06:29:40;;;;;;;4.30;1.50;;;;;;;15.74;55.98;98899.44;4980196;28;20027;-63
2021/05/30 06:32:06;;;;;;;4.15;1.60;;;;;;;15.77;57.40;98909.59;4962423;28;20405;-64
2021/05/30 06:34:32;;;;;;;3.97;1.55;;;;;;;15.97;58.16;98936.16;4962675;28;20034;-65
2021/05/30 06:36:57;;;;;;;3.72;1.50;;;;;;;15.79;58.17;98884.00;4977653;28;20054;-64
2021/05/30 06:39:23;;;;;;;3.90;1.90;;;;;;;16.00;58.95;98919.28;4976824;28;20066;-62
2021/05/30 06:41:50;;;;;;;4.95;2.40;;;;;;;16.19;57.85;98929.38;4975308;28;20031;-64
2021/05/30 06:44:16;;;;;;;4.35;1.88;;;;;;;16.11;57.95;98919.72;4976745;28;20041;-62
2021/05/30 06:46:42;;;;;;;5.38;2.00;;;;;;;16.21;57.71;98929.16;4960803;28;20954;-64
2021/05/30 06:49:07;;;;;;;3.75;1.73;;;;;;;16.27;57.31;98921.44;4980969;28;20077;-65
2021/05/30 06:51:33;;;;;;;3.88;1.73;;;;;;;15.71;57.38;98845.50;4975876;28;20031;-64
2021/05/30 06:54:00;;;;;;;4.20;1.80;;;;;;;16.26;57.86;98927.69;4980166;28;20037;-63
2021/05/30 06:56:26;;;;;;;7.53;1.73;;;;;;;15.98;58.42;98881.94;4973128;28;20030;-64
2021/05/30 06:58:52;;;;;;;5.10;1.95;;;;;;;15.99;58.41;98889.63;4976028;28;20058;-62
2021/05/30 07:01:19;;;;;;;8.23;2.10;;;;;;;16.27;58.71;98926.69;4972680;28;20109;-63
2021/05/30 07:03:45;;;;;;;7.78;2.10;;;;;;;16.41;58.79;98919.03;4964034;28;20617;-63
2021/05/30 07:06:10;;;;;;;3.88;1.98;;;;;;;16.50;58.48;98931.94;4960723;28;20038;-63
2021/05/30 07:08:35;;;;;;;3.83;1.83;;;;;;;16.49;58.66;98901.44;4989236;28;20038;-63
2021/05/30 07:11:01;;;;;;;4.43;2.00;;;;;;;16.63;57.36;98925.28;4979787;28;20424;-65
2021/05/30 07:13:27;;;;;;;4.28;1.90;;;;;;;16.37;57.57;98886.28;4973211;28;20051;-63
2021/05/30 07:15:53;;;;;;;5.13;2.00;;;;;;;16.68;56.96;98928.19;4972062;28;20042;-62
2021/05/30 07:18:19;;;;;;;4.40;2.13;;;;;;;16.43;57.23;98931.00;4966732;28;20031;-63
2021/05/30 07:20:46;;;;;;;5.63;2.10;;;;;;;16.41;56.83;98930.38;4969443;28;20184;-62
2021/05/30 07:23:11;;;;;;;5.20;2.20;;;;;;;16.36;57.28;98929.25;4973222;28;20042;-63
2021/05/30 07:25:37;;;;;;;5.07;2.00;;;;;;;16.37;57.50;98931.69;4961373;28;20027;-64
2021/05/30 07:28:03;;;;;;;5.00;2.10;;;;;;;16.34;57.23;98934.69;4976203;28;20549;-65
2021/05/30 07:30:29;;;;;;;4.90;2.42;;;;;;;16.26;56.58;98908.47;4963660;28;20109;-65
2021/05/30 07:32:54;;;;;;;4.00;1.92;;;;;;;16.31;57.09;98906.97;4971505;28;20521;-63
2021/05/30 07:35:20;;;;;;;6.00;2.13;;;;;;;16.42;57.06;98911.00;4974397;28;20026;-65
2021/05/30 07:37:46;;;;;;;4.38;2.08;;;;;;;16.44;56.60;98914.25;4994167;28;20406;-64
2021/05/30 07:40:11;;;;;;;4.30;2.20;;;;;;;16.92;56.07;98911.47;4974712;28;20370;-64
2021/05/30 07:42:37;;;;;;;5.00;2.08;;;;;;;17.67;53.52;98894.72;4978763;28;20026;-65
2021/05/30 07:45:04;;;;;;;5.82;2.22;;;;;;;17.22;53.50;98867.63;4979593;28;20038;-61
2021/05/30 07:47:30;;;;;;;4.75;2.00;;;;;;;17.48;53.35;98884.75;4978870;28;20088;-63
2021/05/30 07:49:55;;;;;;;5.43;2.10;;;;;;;17.68;52.98;98895.53;4980924;28;20819;-64
2021/05/30 07:52:20;;;;;;;4.50;2.10;;;;;;;17.92;52.13;98894.41;4974460;28;20038;-64
2021/05/30 07:54:46;;;;;;;4.90;2.03;;;;;;;17.77;52.78;98878.63;4975703;28;20489;-65
2021/05/30 07:57:11;;;;;;;5.63;1.90;;;;;;;17.94;52.33;98896.88;4961087;28;20048;-63
2021/05/30 07:59:37;;;;;;;5.28;2.35;;;;;;;17.95;52.34;98888.00;4976207;28;20034;-63
2021/05/30 08:02:03;;;;;;;6.72;2.30;;;;;;;18.15;51.54;98848.72;4973341;28;20035;-60
2021/05/30 08:04:28;;;;;;;4.25;2.03;;;;;;;18.70;50.81;98891.94;4979281;28;20037;-64
2021/05/30 08:06:54;;;;;;;4.55;2.03;;;;;;;18.77;49.92;98887.53;4979041;28;20034;-64
2021/05/30 08:09:19;;;;;;;6.75;2.08;;;;;;;18.32;50.86;98855.34;4978274;28;20030;-64
2021/05/30 08:11:45;;;;;;;4.22;1.90;;;;;;;18.92;49.54;98891.94;4980247;28;20038;-63
2021/05/30 08:14:10;;;;;;;4.93;2.03;;;;;;;19.13;49.10;98870.81;4960826;28;20030;-64
2021/05/30 08:16:36;;;;;;;4.95;1.92;;;;;;;19.02;47.71;98808.91;4977586;28;20584;-61
2021/05/30 08:19:01;;;;;;;5.03;2.28;;;;;;;19.43;47.02;98882.94;4967920;28;20335;-63
2021/05/30 08:21:27;;;;;;;5.35;1.90;;;;;;;19.69;46.90;98874.31;4978958;28;20098;-64
2021/05/30 08:23:52;;;;;;;4.15;1.92;;;;;;;19.73;47.25;98886.97;4960991;28;20361;-63
2021/05/30 08:26:18;;;;;;;4.18;2.20;;;;;;;19.18;48.21;98884.22;4960462;28;20031;-64
2021/05/30 08:28:43;;;;;;;5.18;2.05;;;;;;;19.28;48.00;98889.13;4960781;28;20104;-63
2021/05/30 08:31:09;;;;;;;5.40;1.92;;;;;;;19.08;48.63;98878.47;4976791;28;20066;-63
2021/05/30 08:33:34;;;;;;;5.35;1.90;;;;;;;19.23;47.21;98880.19;4992491;28;20356;-63
2021/05/30 08:36:00;;;;;;;4.88;1.95;;;;;;;19.13;44.83;98860.25;4970486;28;20538;-62
2021/05/30 08:38:26;;;;;;;4.70;1.80;;;;;;;19.09;44.69;98871.38;4974655;28;20073;-64
2021/05/30 08:40:52;;;;;;;4.10;1.58;;;;;;;19.05;42.38;98859.59;4970536;28;20203;-63
2021/05/30 08:43:18;;;;;;;6.50;2.10;;;;;;;19.35;45.20;98862.81;4974017;28;20030;-63
2021/05/30 08:45:44;;;;;;;4.57;1.58;;;;;;;19.67;39.89;98873.69;4960844;28;20034;-62
2021/05/30 08:48:10;;;;;;;4.80;1.60;;;;;;;20.15;39.98;98868.38;4973825;28;20137;-63
2021/05/30 08:50:36;;;;;;;6.38;1.70;;;;;;;20.11;41.14;98830.19;4960250;28;20137;-64
2021/05/30 08:53:02;;;;;;;4.57;1.80;;;;;;;19.72;42.16;98868.66;4989124;28;20038;-61
2021/05/30 08:55:28;;;;;;;4.00;1.85;;;;;;;19.34;42.23;98861.19;4960397;28;20090;-64
2021/05/30 08:57:53;;;;;;;7.55;2.45;;;;;;;19.09;43.58;98860.81;4975889;28;20521;-64
2021/05/30 09:00:28;;;;;;;5.95;2.13;;;;;;;19.37;43.74;98858.97;4962756;28;20042;-62
2021/05/30 09:03:13;;;;;;;4.82;1.83;;;;;;;20.82;41.39;98845.47;4976198;28;20089;-63
2021/05/30 09:05:40;;;;;;;3.83;1.42;;;;;;;22.08;38.27;98849.50;4990735;28;20030;-62
2021/05/30 09:08:05;;;;;;;4.13;1.73;;;;;;;22.50;35.48;98841.09;4976911;28;20227;-62
2021/05/30 09:10:31;;;;;;;4.25;2.00;;;;;;;22.94;34.99;98841.91;4959556;28;20658;-62
2021/05/30 09:13:08;;;;;;;4.40;1.67;;;;;;;22.97;33.37;98838.03;4962013;28;20026;-62
2021/05/30 09:15:51;;;;;;;7.18;2.20;;;;;;;22.33;36.42;98832.88;4959472;28;20571;-64
2021/05/30 09:18:19;;;;;;;11.77;5.25;;;;;;;21.39;38.61;98829.88;4964070;28;20022;-63
2021/05/30 09:20:58;;;;;;;20.15;9.25;;;;;;;21.30;38.55;98805.50;4981296;28;20037;-63
2021/05/30 09:23:33;;;;;;;;;;;;;;;22.25;36.59;98831.28;4979243;28;20500;-64
2021/05/30 09:26:18;;;;;;;25.52;11.02;;;;;;;22.99;36.39;98823.50;4977557;28;19960;-63
2021/05/30 09:29:06;;;;;;;4.70;2.08;;;;;;;23.73;33.33;98823.47;4981046;28;20034;-64
2021/05/30 09:31:57;;;;;;;5.30;2.20;;;;;;;22.51;36.34;98818.88;4979478;28;20045;-64
2021/05/30 09:34:29;;;;;;;4.90;1.73;;;;;;;22.34;37.05;98788.66;4996223;28;20050;-64
2021/05/30 09:36:55;;;;;;;3.92;1.60;;;;;;;23.13;36.31;98810.94;4979164;28;20422;-64
2021/05/30 09:39:36;;;;;;;5.43;2.22;;;;;;;23.53;35.78;98823.72;4964721;28;20077;-62
2021/05/30 09:42:25;;;;;;;5.00;1.88;;;;;;;23.92;34.87;98821.59;4973104;28;20026;-66
2021/05/30 09:44:57;;;;;;;4.83;1.60;;;;;;;24.02;33.62;98823.69;4991526;28;20062;-66
2021/05/30 09:47:36;;;;;;;5.45;1.90;;;;;;;23.66;33.51;98812.13;4974148;28;20030;-66
2021/05/30 09:50:03;;;;;;;4.53;1.83;;;;;;;22.93;35.40;98808.47;4976780;28;20070;-66
2021/05/30 09:52:41;;;;;;;5.85;3.13;;;;;;;22.15;37.50;98824.81;4962902;28;20038;-63
2021/05/30 09:55:23;;;;;;;4.40;1.55;;;;;;;22.11;37.05;98813.84;4979939;28;20030;-67
2021/05/30 09:58:14;;;;;;;3.78;1.70;;;;;;;22.08;36.94;98814.28;5008804;28;20081;-65
2021/05/30 10:00:44;;;;;;;4.22;1.60;;;;;;;21.99;37.84;98805.78;4979343;28;20026;-68
2021/05/30 10:03:10;;;;;;;5.53;1.67;;;;;;;21.88;37.19;98799.31;4961326;28;20594;-70
2021/05/30 10:05:36;;;;;;;3.85;1.73;;;;;;;21.19;39.19;98740.06;4963522;28;20086;-68
2021/05/30 10:08:03;;;;;;;4.85;1.75;;;;;;;21.35;40.04;98788.19;4978910;28;20501;-68
2021/05/30 10:10:29;;;;;;;4.93;1.80;;;;;;;21.53;40.01;98787.53;4962393;28;20122;-70
2021/05/30 10:12:55;;;;;;;4.25;1.70;;;;;;;21.62;38.88;98796.84;4976684;28;20494;-64
2021/05/30 10:15:21;;;;;;;4.80;1.55;;;;;;;21.69;38.99;98801.06;4967065;28;20041;-66
2021/05/30 10:17:48;;;;;;;5.05;1.70;;;;;;;21.59;39.97;98795.41;4960485;28;20122;-69
2021/05/30 10:20:19;;;;;;;4.05;1.70;;;;;;;21.52;40.14;98791.19;4960787;28;20414;-66
2021/05/30 10:22:50;;;;;;;5.68;1.73;;;;;;;21.60;38.84;98783.81;4961456;28;20161;-68
2021/05/30 10:25:24;;;;;;;4.65;2.03;;;;;;;21.44;38.67;98785.09;4965170;28;20050;-67
2021/05/30 10:28:19;;;;;;;4.40;1.52;;;;;;;21.52;38.91;98785.91;4963132;28;20470;-68
2021/05/30 10:30:47;;;;;;;4.35;1.70;;;;;;;21.31;39.94;98758.72;4985187;28;20039;-69
2021/05/30 10:33:18;;;;;;;4.15;1.98;;;;;;;21.08;40.36;98732.78;4962934;28;20038;-67
2021/05/30 10:35:47;;;;;;;4.93;1.70;;;;;;;21.27;40.31;98766.25;4976741;28;20026;-68
2021/05/30 10:38:39;;;;;;;5.05;1.85;;;;;;;21.42;39.64;98760.69;4987722;28;20113;-68
2021/05/30 10:41:16;;;;;;;3.50;1.50;;;;;;;21.29;39.84;98752.81;4963238;28;20703;-70
2021/05/30 10:43:42;;;;;;;4.13;1.67;;;;;;;20.92;38.60;98719.00;5011356;28;20038;-72
2021/05/30 10:46:08;;;;;;;4.32;1.77;;;;;;;21.07;39.23;98749.66;5014963;28;20481;-70
2021/05/30 10:48:34;;;;;;;5.28;1.90;;;;;;;21.16;39.21;98747.59;4962081;28;20030;-69
2021/05/30 10:53:45;;;;;;;4.10;1.65;;;;;;;21.41;39.93;98745.03;4977993;28;20042;-67
2021/05/30 10:56:34;;;;;;;4.93;1.67;;;;;;;21.54;38.80;98739.72;4964387;28;20104;-67
2021/05/30 10:59:06;;;;;;;;;;;;;;;21.64;37.78;98739.25;4966945;28;20100;-67
2021/05/30 11:01:34;;;;;;;5.80;1.80;;;;;;;21.52;38.35;98740.94;4988232;28;19923;-69
2021/05/30 11:04:29;;;;;;;3.67;1.60;;;;;;;21.33;38.36;98732.88;4981841;28;20088;-66
2021/05/30 11:07:04;;;;;;;4.75;1.80;;;;;;;21.23;38.12;98698.97;4980360;28;20333;-65
2021/05/30 11:09:48;;;;;;;6.70;1.70;;;;;;;21.70;36.52;98725.16;4971386;28;20034;-71
2021/05/30 11:12:23;;;;;;;4.00;1.63;;;;;;;21.59;37.98;98718.69;4972227;28;20080;-69
2021/05/30 11:15:07;;;;;;;4.57;1.80;;;;;;;21.66;38.84;98718.66;5002154;28;20026;-72
2021/05/30 11:17:46;;;;;;;3.90;1.90;;;;;;;21.76;38.63;98718.19;4976255;28;20670;-69
2021/05/30 11:20:37;;;;;;;3.80;1.70;;;;;;;21.94;37.71;98699.75;4958881;28;20081;-67
2021/05/30 11:23:05;;;;;;;4.15;1.70;;;;;;;22.05;38.25;98714.91;4970911;28;20042;-66
2021/05/30 11:25:37;;;;;;;4.25;1.60;;;;;;;22.11;37.44;98697.34;4971493;28;20027;-72
2021/05/30 11:28:08;;;;;;;3.60;1.50;;;;;;;22.17;37.17;98700.97;4976640;28;20058;-66
2021/05/30 11:30:37;;;;;;;4.65;1.95;;;;;;;22.13;36.07;98697.13;4962063;28;20026;-68
2021/05/30 11:33:03;;;;;;;3.80;1.70;;;;;;;22.06;35.35;98691.88;4979575;28;20069;-66
2021/05/30 11:35:29;;;;;;;4.15;1.60;;;;;;;22.12;36.07;98693.66;4969837;28;20653;-71
2021/05/30 11:37:55;;;;;;;3.63;1.60;;;;;;;22.21;34.67;98684.41;4973692;28;20037;-68
2021/05/30 11:40:22;;;;;;;3.92;1.70;;;;;;;21.85;35.25;98650.75;4968278;28;20026;-68